Time;durP1;ratioP1;P1;durP2;ratioP2;P2;SDS_P1;SDS_P2;PMS_P1;PMS_P2;Temp;Humidity;BMP_temperature;BMP_pressure;BME280_temperature;BME280_humidity;BME280_pressure;Samples;Min_cycle;Max_cycle;Signal;HPM_P1;HPM_P2
2023/05/21 00:01:02;;;;;;;0.10;0.10;;;13.40;99.90;;;;;;5079287;28;20511;-82
2023/05/21 00:03:29;;;;;;;0.10;0.10;;;13.40;99.90;;;;;;5081465;28;20483;-82
2023/05/21 00:05:55;;;;;;;0.20;0.20;;;13.40;99.90;;;;;;5080652;28;20032;-85
2023/05/21 00:08:22;;;;;;;2.05;1.95;;;13.40;99.90;;;;;;5080933;28;20491;-85
2023/05/21 00:10:48;;;;;;;0.10;0.10;;;13.40;99.90;;;;;;5081026;28;20285;-83
2023/05/21 00:13:16;;;;;;;0.10;0.10;;;13.40;99.90;;;;;;5080673;28;20411;-78
2023/05/21 00:15:42;;;;;;;0.15;0.15;;;13.40;99.90;;;;;;5080329;28;20137;-74
2023/05/21 00:18:08;;;;;;;4.47;3.55;;;13.40;99.90;;;;;;5080284;28;20103;-80
2023/05/21 00:20:34;;;;;;;0.20;0.20;;;13.30;99.90;;;;;;5080502;28;20463;-77
2023/05/21 00:23:03;;;;;;;9.43;8.68;;;13.30;99.90;;;;;;5080681;28;20016;-82
2023/05/21 00:25:29;;;;;;;0.20;0.20;;;13.30;99.90;;;;;;5080799;28;20020;-75
2023/05/21 00:27:55;;;;;;;0.20;0.20;;;13.20;99.90;;;;;;5079163;28;20228;-80
2023/05/21 00:30:21;;;;;;;0.98;0.98;;;13.20;99.90;;;;;;5080935;28;20105;-75
2023/05/21 00:32:47;;;;;;;0.20;0.20;;;13.20;99.90;;;;;;5081028;28;20441;-82
2023/05/21 00:35:13;;;;;;;0.15;0.15;;;13.10;99.90;;;;;;5080648;28;20043;-78
2023/05/21 00:37:39;;;;;;;0.20;0.20;;;13.10;99.90;;;;;;5081755;28;20055;-82
2023/05/21 00:40:10;;;;;;;0.20;0.20;;;13.00;99.90;;;;;;5084102;28;20028;-74
2023/05/21 00:42:39;;;;;;;0.10;0.10;;;13.00;99.90;;;;;;5088088;28;20330;-82
2023/05/21 00:45:06;;;;;;;4.22;4.05;;;12.90;99.90;;;;;;5090841;28;20341;-80
2023/05/21 00:47:33;;;;;;;0.20;0.20;;;12.80;99.90;;;;;;5087653;28;20328;-74
2023/05/21 00:50:00;;;;;;;0.20;0.20;;;12.70;99.90;;;;;;5086506;28;20016;-82
2023/05/21 00:52:26;;;;;;;0.20;0.20;;;12.70;99.90;;;;;;5080552;28;20020;-79
2023/05/21 00:54:52;;;;;;;0.20;0.20;;;12.70;99.90;;;;;;5080262;28;20052;-85
2023/05/21 00:57:21;;;;;;;0.20;0.20;;;12.70;99.90;;;;;;5080869;28;20016;-81
2023/05/21 00:59:51;;;;;;;0.10;0.10;;;12.70;99.90;;;;;;5080556;28;20028;-78
2023/05/21 01:02:17;;;;;;;0.20;0.20;;;12.60;99.90;;;;;;5080347;28;20510;-80
2023/05/21 01:04:46;;;;;;;0.10;0.10;;;12.60;99.90;;;;;;5080420;28;20103;-83
2023/05/21 01:07:13;;;;;;;2.85;2.60;;;12.60;99.90;;;;;;5080409;28;20016;-88
2023/05/21 01:09:40;;;;;;;0.80;0.80;;;12.60;99.90;;;;;;5080463;28;20024;-76
2023/05/21 01:12:07;;;;;;;0.10;0.10;;;12.60;99.90;;;;;;5080174;28;20373;-80
2023/05/21 01:14:36;;;;;;;0.20;0.20;;;12.50;99.90;;;;;;5079614;28;20028;-81
2023/05/21 01:17:03;;;;;;;0.30;0.30;;;12.50;99.90;;;;;;5077686;28;20553;-80
2023/05/21 01:19:31;;;;;;;0.20;0.20;;;12.50;99.90;;;;;;5080319;28;20103;-80
2023/05/21 01:22:03;;;;;;;0.10;0.10;;;12.50;99.90;;;;;;5079850;28;20086;-78
2023/05/21 01:24:30;;;;;;;0.10;0.10;;;12.50;99.90;;;;;;5080172;28;20303;-82
2023/05/21 01:26:57;;;;;;;0.10;0.10;;;12.50;99.90;;;;;;5079664;28;20017;-77
2023/05/21 01:29:23;;;;;;;0.10;0.10;;;12.50;99.90;;;;;;5079395;28;20078;-78
2023/05/21 01:32:24;;;;;;;0.10;0.10;;;12.50;99.90;;;;;;5080266;28;20013;-81
2023/05/21 01:35:07;;;;;;;0.10;0.10;;;12.50;99.90;;;;;;5079681;28;20243;-83
2023/05/21 01:37:56;;;;;;;0.10;0.10;;;12.50;99.90;;;;;;5079175;28;20522;-80
2023/05/21 01:40:46;;;;;;;0.10;0.10;;;12.50;99.90;;;;;;5079207;28;20331;-79
2023/05/21 01:43:13;;;;;;;0.20;0.20;;;12.50;99.90;;;;;;5077998;28;20683;-82
2023/05/21 01:45:41;;;;;;;2.88;2.72;;;12.40;99.90;;;;;;5078816;28;20024;-80
2023/05/21 01:48:09;;;;;;;0.50;0.50;;;12.40;99.90;;;;;;5081244;28;20024;-79
2023/05/21 01:50:38;;;;;;;1.67;1.60;;;12.40;99.90;;;;;;5079805;28;20027;-74
2023/05/21 01:53:04;;;;;;;0.10;0.10;;;12.40;99.90;;;;;;5080343;28;20103;-81
2023/05/21 01:55:31;;;;;;;0.10;0.10;;;12.40;99.90;;;;;;5079925;28;20063;-82
2023/05/21 01:57:58;;;;;;;0.20;0.20;;;12.40;99.90;;;;;;5081480;28;20028;-81
2023/05/21 02:00:29;;;;;;;0.10;0.10;;;12.50;99.90;;;;;;5079312;28;20158;-87
2023/05/21 02:02:55;;;;;;;2.75;2.50;;;12.40;99.90;;;;;;5080325;28;20024;-83
2023/05/21 02:05:21;;;;;;;0.20;0.20;;;12.40;99.90;;;;;;5080636;28;20023;-76
2023/05/21 02:07:48;;;;;;;0.20;0.20;;;12.40;99.90;;;;;;5081142;28;20395;-74
2023/05/21 02:10:14;;;;;;;0.20;0.20;;;12.30;99.90;;;;;;5081793;28;20043;-74
2023/05/21 02:12:40;;;;;;;0.20;0.20;;;12.30;99.90;;;;;;5085206;28;20024;-81
2023/05/21 02:15:06;;;;;;;0.20;0.20;;;12.30;99.90;;;;;;5088084;28;20074;-76
2023/05/21 02:17:32;;;;;;;0.20;0.20;;;12.30;99.90;;;;;;5087518;28;20103;-79
2023/05/21 02:20:12;;;;;;;0.20;0.20;;;12.20;99.90;;;;;;5089791;28;20028;-80
2023/05/21 02:22:44;;;;;;;0.10;0.10;;;12.20;99.90;;;;;;5095957;28;20067;-74
2023/05/21 02:25:10;;;;;;;0.20;0.20;;;12.20;99.90;;;;;;5087621;28;20233;-83
2023/05/21 02:27:37;;;;;;;0.10;0.10;;;12.10;99.90;;;;;;5086942;28;20016;-76
2023/05/21 02:30:05;;;;;;;2.28;2.17;;;12.10;99.90;;;;;;5092943;28;20349;-75
2023/05/21 02:32:31;;;;;;;0.20;0.20;;;12.10;99.90;;;;;;5086386;28;20571;-73
2023/05/21 02:34:57;;;;;;;0.20;0.20;;;12.10;99.90;;;;;;5101960;28;20035;-79
2023/05/21 02:37:26;;;;;;;0.25;0.25;;;12.10;99.90;;;;;;5090484;28;20556;-78
2023/05/21 02:39:53;;;;;;;0.20;0.20;;;12.20;99.90;;;;;;5089759;28;20445;-76
2023/05/21 02:42:19;;;;;;;0.25;0.25;;;12.10;99.90;;;;;;5083462;28;20054;-76
2023/05/21 02:44:45;;;;;;;0.20;0.20;;;12.70;99.90;;;;;;5090389;28;20020;-77
2023/05/21 02:47:25;;;;;;;0.10;0.10;;;12.10;99.90;;;;;;5083377;28;20545;-76
2023/05/21 02:49:53;;;;;;;0.10;0.10;;;12.00;99.90;;;;;;5081040;28;20036;-75
2023/05/21 02:52:22;;;;;;;0.20;0.20;;;12.00;99.90;;;;;;5079401;28;20663;-75
2023/05/21 02:54:48;;;;;;;0.20;0.20;;;12.00;99.90;;;;;;5082039;28;20119;-74
2023/05/21 02:57:14;;;;;;;0.20;0.20;;;11.90;99.90;;;;;;5081962;28;20055;-74
2023/05/21 02:59:40;;;;;;;0.10;0.10;;;11.90;99.90;;;;;;5082630;28;20024;-74
2023/05/21 03:02:06;;;;;;;0.20;0.20;;;11.80;99.90;;;;;;5082210;28;20020;-73
2023/05/21 03:04:37;;;;;;;0.13;0.13;;;11.70;99.90;;;;;;5082284;28;20024;-74
2023/05/21 03:07:05;;;;;;;0.20;0.20;;;11.70;99.90;;;;;;5081527;28;20025;-73
2023/05/21 03:09:31;;;;;;;0.10;0.10;;;8.90;99.90;;;;;;5083828;28;20037;-74
2023/05/21 03:11:57;;;;;;;0.10;0.10;;;11.50;99.90;;;;;;5087057;28;20017;-73
2023/05/21 03:14:23;;;;;;;0.20;0.20;;;11.50;99.90;;;;;;5096549;28;20039;-75
2023/05/21 03:16:50;;;;;;;0.20;0.20;;;11.50;99.90;;;;;;5106779;28;20348;-76
2023/05/21 03:19:16;;;;;;;0.10;0.10;;;11.60;99.90;;;;;;5108806;28;20020;-75
2023/05/21 03:21:42;;;;;;;0.10;0.10;;;11.60;99.90;;;;;;5106915;28;20039;-74
2023/05/21 03:24:08;;;;;;;0.10;0.10;;;11.60;99.90;;;;;;5106556;28;20089;-75
2023/05/21 03:26:34;;;;;;;0.20;0.20;;;11.60;99.90;;;;;;5107108;28;20012;-78
2023/05/21 03:29:01;;;;;;;0.10;0.10;;;11.60;99.90;;;;;;5094808;28;20024;-73
2023/05/21 03:31:27;;;;;;;0.20;0.20;;;11.60;99.90;;;;;;5102968;28;20088;-75
2023/05/21 03:33:55;;;;;;;0.20;0.20;;;11.60;99.90;;;;;;5090984;28;20035;-73
2023/05/21 03:36:21;;;;;;;0.13;0.13;;;11.60;99.90;;;;;;5080104;28;20016;-74
2023/05/21 03:38:47;;;;;;;0.38;0.38;;;11.60;99.90;;;;;;5080483;28;20046;-74
2023/05/21 03:41:13;;;;;;;0.10;0.10;;;11.60;99.90;;;;;;5083653;28;20035;-73
2023/05/21 03:43:39;;;;;;;0.10;0.10;;;11.60;99.90;;;;;;5085396;28;20495;-74
2023/05/21 03:46:06;;;;;;;0.10;0.10;;;11.60;99.90;;;;;;5084865;28;20024;-73
2023/05/21 03:48:31;;;;;;;0.13;0.13;;;11.60;99.90;;;;;;5089041;28;20024;-73
2023/05/21 03:51:00;;;;;;;0.10;0.10;;;11.60;99.90;;;;;;5110083;28;20062;-73
2023/05/21 03:53:52;;;;;;;0.13;0.13;;;12.00;99.90;;;;;;5111036;28;20032;-74
2023/05/21 03:56:18;;;;;;;0.10;0.10;;;11.60;99.90;;;;;;5107974;28;20058;-81
2023/05/21 03:58:43;;;;;;;0.10;0.10;;;11.60;99.90;;;;;;5108095;28;20489;-74
2023/05/21 04:01:09;;;;;;;0.20;0.20;;;11.60;99.90;;;;;;5102049;28;20646;-73
2023/05/21 04:03:35;;;;;;;0.10;0.10;;;11.70;99.90;;;;;;5103509;28;20017;-74
2023/05/21 04:06:04;;;;;;;0.10;0.10;;;11.70;99.90;;;;;;5110971;28;20054;-76
2023/05/21 04:08:30;;;;;;;0.13;0.13;;;11.80;99.90;;;;;;5110375;28;20020;-75
2023/05/21 04:10:56;;;;;;;0.10;0.10;;;11.80;99.90;;;;;;5108871;28;20034;-75
2023/05/21 04:13:22;;;;;;;0.20;0.20;;;11.80;99.90;;;;;;5106763;28;20068;-76
2023/05/21 04:15:48;;;;;;;0.20;0.20;;;11.70;99.90;;;;;;5098292;28;20039;-73
2023/05/21 04:18:16;;;;;;;0.82;0.82;;;11.70;99.90;;;;;;5098590;28;20020;-73
2023/05/21 04:20:42;;;;;;;4.82;4.57;;;11.70;99.90;;;;;;5105375;28;20035;-75
2023/05/21 04:23:09;;;;;;;2.97;2.88;;;11.60;99.90;;;;;;5100859;28;20028;-75
2023/05/21 04:25:35;;;;;;;0.10;0.10;;;11.60;99.90;;;;;;5101339;28;20031;-74
2023/05/21 04:28:01;;;;;;;0.25;0.25;;;11.50;99.90;;;;;;5089414;28;20059;-73
2023/05/21 04:30:26;;;;;;;0.15;0.15;;;11.50;99.90;;;;;;5092003;28;20020;-74
2023/05/21 04:32:53;;;;;;;0.20;0.20;;;11.50;99.90;;;;;;5095402;28;20031;-76
2023/05/21 04:35:28;;;;;;;0.20;0.20;;;11.60;99.90;;;;;;5089959;28;20212;-76
2023/05/21 04:37:54;;;;;;;0.20;0.20;;;11.70;99.90;;;;;;5096544;28;20019;-73
2023/05/21 04:40:23;;;;;;;0.10;0.10;;;11.80;99.90;;;;;;5090415;28;20148;-75
2023/05/21 04:42:49;;;;;;;0.20;0.20;;;11.90;99.90;;;;;;5100357;28;20024;-75
2023/05/21 04:45:16;;;;;;;0.20;0.20;;;11.90;99.90;;;;;;5099214;28;20025;-76
2023/05/21 04:47:44;;;;;;;0.15;0.15;;;12.00;99.90;;;;;;5095007;28;20028;-79
2023/05/21 04:50:10;;;;;;;0.20;0.20;;;12.00;99.90;;;;;;5093105;28;20021;-77
2023/05/21 04:52:39;;;;;;;0.10;0.10;;;12.10;99.90;;;;;;5088104;28;20028;-73
2023/05/21 04:55:05;;;;;;;0.20;0.20;;;12.10;99.90;;;;;;5092250;28;20047;-83
2023/05/21 04:57:31;;;;;;;2.40;2.30;;;12.30;99.90;;;;;;5091297;28;20024;-76
2023/05/21 04:59:57;;;;;;;0.10;0.10;;;12.30;99.90;;;;;;5087683;28;20619;-80
2023/05/21 05:02:22;;;;;;;0.10;0.10;;;12.40;99.90;;;;;;5080890;28;20024;-74
2023/05/21 05:04:48;;;;;;;0.10;0.10;;;12.50;99.90;;;;;;5083250;28;20043;-76
2023/05/21 05:07:14;;;;;;;0.20;0.20;;;12.60;99.90;;;;;;5082167;28;20028;-80
2023/05/21 05:09:40;;;;;;;0.20;0.20;;;12.80;99.90;;;;;;5081087;28;20024;-73
2023/05/21 05:12:06;;;;;;;0.10;0.10;;;12.80;99.90;;;;;;5080695;28;20034;-77
2023/05/21 05:14:31;;;;;;;0.30;0.30;;;12.90;99.90;;;;;;5081274;28;20217;-74
2023/05/21 05:17:00;;;;;;;0.50;0.50;;;13.00;99.90;;;;;;5081015;28;20282;-75
2023/05/21 05:19:26;;;;;;;0.10;0.10;;;13.10;99.90;;;;;;5080899;28;20502;-73
2023/05/21 05:21:52;;;;;;;0.85;0.85;;;13.20;99.90;;;;;;5080423;28;20031;-76
2023/05/21 05:24:18;;;;;;;0.28;0.28;;;13.30;99.90;;;;;;5079565;28;20060;-79
2023/05/21 05:26:44;;;;;;;1.15;1.15;;;13.40;99.90;;;;;;5079605;28;20016;-77
2023/05/21 05:29:10;;;;;;;0.20;0.20;;;13.40;99.90;;;;;;5079987;28;20048;-82
2023/05/21 05:31:36;;;;;;;0.25;0.25;;;13.50;99.90;;;;;;5078271;28;20063;-78
2023/05/21 05:34:01;;;;;;;0.43;0.43;;;13.60;99.90;;;;;;5078354;28;20378;-75
2023/05/21 05:36:27;;;;;;;0.10;0.10;;;13.70;99.90;;;;;;5078363;28;20047;-81
2023/05/21 05:38:53;;;;;;;0.20;0.20;;;13.80;99.90;;;;;;5079769;28;20024;-75
2023/05/21 05:41:19;;;;;;;0.20;0.20;;;13.90;99.90;;;;;;5079750;28;20031;-76
2023/05/21 05:43:45;;;;;;;0.20;0.20;;;13.90;99.90;;;;;;5080277;28;20228;-77
2023/05/21 05:46:11;;;;;;;0.20;0.20;;;14.00;99.90;;;;;;5080159;28;20381;-79
2023/05/21 05:48:36;;;;;;;0.20;0.20;;;14.10;99.90;;;;;;5080007;28;20024;-78
2023/05/21 05:51:02;;;;;;;0.32;0.32;;;15.40;99.90;;;;;;5079383;28;20030;-81
2023/05/21 05:53:28;;;;;;;0.17;0.17;;;14.20;99.90;;;;;;5079294;28;20024;-76
2023/05/21 05:55:54;;;;;;;0.10;0.10;;;14.40;99.90;;;;;;5080676;28;20059;-73
2023/05/21 05:58:20;;;;;;;0.20;0.20;;;14.50;99.90;;;;;;5081371;28;20043;-73
2023/05/21 06:00:46;;;;;;;3.92;3.55;;;14.60;99.90;;;;;;5079872;28;20529;-73
2023/05/21 06:03:12;;;;;;;0.20;0.20;;;14.60;99.90;;;;;;5081208;28;20020;-74
2023/05/21 06:05:38;;;;;;;1.20;1.20;;;14.70;99.90;;;;;;5081238;28;20263;-74
2023/05/21 06:08:04;;;;;;;0.20;0.20;;;14.80;99.90;;;;;;5081583;28;20025;-76
2023/05/21 06:10:30;;;;;;;0.20;0.20;;;14.90;99.90;;;;;;5081094;28;20078;-73
2023/05/21 06:12:55;;;;;;;0.98;0.90;;;15.00;99.90;;;;;;5081393;28;20483;-75
2023/05/21 06:15:21;;;;;;;0.35;0.35;;;15.20;99.90;;;;;;5080966;28;20032;-78
2023/05/21 06:17:47;;;;;;;0.20;0.20;;;15.30;99.90;;;;;;5078197;28;20303;-81
2023/05/21 06:20:13;;;;;;;0.20;0.20;;;15.40;99.90;;;;;;5078055;28;20126;-81
2023/05/21 06:22:39;;;;;;;2.42;2.33;;;15.60;99.90;;;;;;5078197;28;20023;-78
2023/05/21 06:25:05;;;;;;;0.20;0.20;;;15.60;99.90;;;;;;5078316;28;20012;-78
2023/05/21 06:27:32;;;;;;;7.32;2.85;;;15.30;99.90;;;;;;5078239;28;20296;-75
2023/05/21 06:29:57;;;;;;;5.50;2.05;;;15.80;99.90;;;;;;5076702;28;20253;-77
2023/05/21 06:32:24;;;;;;;5.18;1.23;;;15.90;99.90;;;;;;5077912;28;20335;-75
2023/05/21 06:34:50;;;;;;;0.20;0.20;;;16.00;99.90;;;;;;5077842;28;20529;-78
2023/05/21 06:37:22;;;;;;;0.20;0.20;;;16.10;99.90;;;;;;5078202;28;20077;-79
2023/05/21 06:39:48;;;;;;;0.20;0.20;;;16.30;99.90;;;;;;5078403;28;20024;-76
2023/05/21 06:42:14;;;;;;;0.25;0.25;;;16.40;99.90;;;;;;5077896;28;20220;-78
2023/05/21 06:44:41;;;;;;;0.38;0.38;;;16.60;99.90;;;;;;5077573;28;20031;-79
2023/05/21 06:47:06;;;;;;;0.30;0.30;;;16.90;99.90;;;;;;5077589;28;20039;-74
2023/05/21 06:49:32;;;;;;;0.20;0.20;;;17.20;99.90;;;;;;5077960;28;20208;-76
2023/05/21 06:51:58;;;;;;;0.30;0.30;;;17.60;99.90;;;;;;5076361;28;20232;-79
2023/05/21 06:54:23;;;;;;;0.20;0.20;;;17.90;99.90;;;;;;5077291;28;20364;-79
2023/05/21 06:56:49;;;;;;;0.10;0.10;;;18.20;99.90;;;;;;5077743;28;20076;-79
2023/05/21 06:59:15;;;;;;;0.10;0.10;;;18.50;99.90;;;;;;5077759;28;20388;-77
2023/05/21 07:01:41;;;;;;;1.30;1.17;;;18.90;99.90;;;;;;5077799;28;20098;-78
2023/05/21 07:04:08;;;;;;;0.25;0.25;;;19.30;99.90;;;;;;5077615;28;20024;-81
2023/05/21 07:06:34;;;;;;;0.50;0.50;;;19.60;99.90;;;;;;5077786;28;20047;-78
2023/05/21 07:09:01;;;;;;;0.20;0.20;;;18.50;99.90;;;;;;5077811;28;20089;-81
2023/05/21 07:11:27;;;;;;;0.10;0.10;;;20.30;99.90;;;;;;5077421;28;20023;-76
2023/05/21 07:13:55;;;;;;;0.30;0.30;;;17.50;98.80;;;;;;5077367;28;20311;-75
2023/05/21 07:16:21;;;;;;;0.43;0.43;;;20.40;98.90;;;;;;5080338;28;20021;-74
2023/05/21 07:18:47;;;;;;;0.63;0.63;;;20.40;99.50;;;;;;5081875;28;20031;-83
2023/05/21 07:21:12;;;;;;;0.30;0.30;;;20.50;99.40;;;;;;5079755;28;20697;-75
2023/05/21 07:23:39;;;;;;;0.10;0.10;;;20.50;98.80;;;;;;5080849;28;20012;-82
2023/05/21 07:26:04;;;;;;;0.10;0.10;;;20.60;98.90;;;;;;5079227;28;20249;-74
2023/05/21 07:28:30;;;;;;;0.10;0.10;;;20.60;99.00;;;;;;5081590;28;20364;-81
2023/05/21 07:30:56;;;;;;;0.10;0.10;;;20.80;99.20;;;;;;5081496;28;20020;-75
2023/05/21 07:33:22;;;;;;;1.02;0.68;;;20.90;99.00;;;;;;5079555;28;20256;-78
2023/05/21 07:35:47;;;;;;;0.20;0.20;;;18.60;98.00;;;;;;5081077;28;20487;-76
2023/05/21 07:38:13;;;;;;;0.10;0.10;;;21.00;98.10;;;;;;5080490;28;20510;-77
2023/05/21 07:40:39;;;;;;;0.20;0.20;;;21.90;98.20;;;;;;5081293;28;20185;-84
2023/05/21 07:43:05;;;;;;;0.10;0.10;;;21.40;97.40;;;;;;5082467;28;20100;-74
2023/05/21 07:45:31;;;;;;;0.10;0.10;;;21.10;96.70;;;;;;5084260;28;20103;-73
2023/05/21 07:47:56;;;;;;;0.20;0.20;;;21.70;96.00;;;;;;5087087;28;20040;-77
2023/05/21 07:50:22;;;;;;;0.10;0.10;;;21.60;96.00;;;;;;5085528;28;20050;-77
2023/05/21 07:52:49;;;;;;;0.20;0.20;;;;;;;;;;5084173;28;20024;-78
2023/05/21 07:55:14;;;;;;;0.13;0.13;;;21.50;95.10;;;;;;5085373;28;20052;-75
2023/05/21 07:57:40;;;;;;;0.10;0.10;;;21.50;95.40;;;;;;5084192;28;20013;-80
2023/05/21 08:00:10;;;;;;;0.43;0.43;;;21.10;95.70;;;;;;5081700;28;20212;-83
2023/05/21 08:02:37;;;;;;;0.20;0.20;;;21.10;95.70;;;;;;5083100;28;20024;-74
2023/05/21 08:05:03;;;;;;;0.30;0.30;;;20.90;96.30;;;;;;5086264;28;20028;-80
2023/05/21 08:07:30;;;;;;;0.20;0.20;;;20.90;96.20;;;;;;5080633;28;20044;-79
2023/05/21 08:09:56;;;;;;;1.27;1.17;;;20.90;96.20;;;;;;5083398;28;20040;-76
2023/05/21 08:12:22;;;;;;;0.10;0.10;;;21.10;96.30;;;;;;5086679;28;20758;-80
2023/05/21 08:14:47;;;;;;;0.10;0.10;;;21.40;96.80;;;;;;5084984;28;20043;-76
2023/05/21 08:17:13;;;;;;;0.57;0.57;;;21.80;95.30;;;;;;5088577;28;20488;-81
2023/05/21 08:19:40;;;;;;;0.10;0.10;;;22.00;94.40;;;;;;5084099;28;20028;-79
2023/05/21 08:22:06;;;;;;;0.20;0.20;;;22.30;92.60;;;;;;5080920;28;20043;-75
2023/05/21 08:24:32;;;;;;;0.15;0.15;;;;;;;;;;5080842;28;20044;-85
2023/05/21 08:26:58;;;;;;;0.10;0.10;;;22.40;91.00;;;;;;5079954;28;20021;-77
2023/05/21 08:29:24;;;;;;;0.10;0.10;;;22.40;90.90;;;;;;5078417;28;20031;-76
2023/05/21 08:31:50;;;;;;;0.10;0.10;;;22.60;89.50;;;;;;5079945;28;20733;-75
2023/05/21 08:34:17;;;;;;;0.10;0.10;;;22.60;88.80;;;;;;5078806;28;20243;-81
2023/05/21 08:36:44;;;;;;;0.75;0.75;;;22.70;88.20;;;;;;5080682;28;20095;-76
2023/05/21 08:39:11;;;;;;;0.10;0.10;;;22.60;87.00;;;;;;5062746;28;20023;-80
2023/05/21 08:41:39;;;;;;;0.20;0.20;;;22.70;87.90;;;;;;5080021;28;20017;-83
2023/05/21 08:44:10;;;;;;;0.10;0.10;;;22.70;86.40;;;;;;5078585;28;20044;-83
2023/05/21 08:46:40;;;;;;;0.30;0.30;;;22.80;82.50;;;;;;5080627;28;20031;-75
2023/05/21 08:49:10;;;;;;;0.10;0.10;;;22.90;83.10;;;;;;5080346;28;20018;-77
2023/05/21 08:51:38;;;;;;;3.72;1.35;;;22.90;82.50;;;;;;5079362;28;20040;-77
2023/05/21 08:54:04;;;;;;;0.10;0.10;;;23.10;87.40;;;;;;5080417;28;20024;-73
2023/05/21 08:56:34;;;;;;;0.10;0.10;;;23.20;83.60;;;;;;5081207;28;20024;-76
2023/05/21 08:59:01;;;;;;;2.45;0.90;;;23.30;79.70;;;;;;5080633;28;20020;-74
2023/05/21 09:01:27;;;;;;;0.20;0.20;;;23.20;80.90;;;;;;5079929;28;20048;-75
2023/05/21 09:03:56;;;;;;;0.10;0.10;;;24.10;81.00;;;;;;5082713;28;20088;-78
2023/05/21 09:06:27;;;;;;;0.43;0.43;;;23.90;79.70;;;;;;5079882;28;20109;-78
2023/05/21 09:09:05;;;;;;;0.10;0.10;;;24.00;78.30;;;;;;5081138;28;20124;-84
2023/05/21 09:11:31;;;;;;;0.10;0.10;;;24.10;78.00;;;;;;5080734;28;20107;-78
2023/05/21 09:13:58;;;;;;;0.10;0.10;;;23.70;76.50;;;;;;5080033;28;20213;-86
2023/05/21 09:16:24;;;;;;;0.43;0.43;;;23.70;77.00;;;;;;5080952;28;20028;-85
2023/05/21 09:18:50;;;;;;;0.10;0.10;;;23.70;78.10;;;;;;5079929;28;20661;-85
2023/05/21 09:21:26;;;;;;;0.30;0.30;;;23.50;77.00;;;;;;5080447;28;20407;-81
2023/05/21 09:23:56;;;;;;;0.20;0.20;;;23.50;77.80;;;;;;5080899;28;20024;-85
2023/05/21 09:26:23;;;;;;;0.20;0.20;;;23.60;76.80;;;;;;5081092;28;20274;-86
2023/05/21 09:28:58;;;;;;;1.52;0.95;;;23.60;74.90;;;;;;5082872;28;20027;-88
2023/05/21 09:31:28;;;;;;;0.10;0.10;;;23.80;75.40;;;;;;5081773;28;20028;-91
2023/05/21 09:33:55;;;;;;;0.20;0.20;;;;;;;;;;5082160;28;20024;-88
2023/05/21 09:36:21;;;;;;;0.38;0.38;;;23.70;73.50;;;;;;5082360;28;20031;-87
2023/05/21 09:38:51;;;;;;;1.75;0.77;;;24.00;74.50;;;;;;5081487;28;20008;-87
2023/05/21 09:41:29;;;;;;;0.25;0.25;;;24.40;73.50;;;;;;5081027;28;20107;-85
2023/05/21 09:44:01;;;;;;;0.30;0.30;;;26.80;75.00;;;;;;5081577;28;20024;-81
2023/05/21 09:46:36;;;;;;;0.20;0.20;;;24.20;71.20;;;;;;5089918;28;20035;-80
2023/05/21 09:49:02;;;;;;;4.90;3.40;;;22.80;70.60;;;;;;5082632;28;20124;-79
2023/05/21 09:51:28;;;;;;;0.10;0.10;;;24.30;70.90;;;;;;5080072;28;20146;-77
2023/05/21 09:53:58;;;;;;;0.10;0.10;;;24.70;70.40;;;;;;5079941;28;20036;-77
2023/05/21 09:56:27;;;;;;;0.10;0.10;;;24.70;70.90;;;;;;5079720;28;20093;-78
2023/05/21 09:58:55;;;;;;;0.10;0.10;;;26.00;70.70;;;;;;5077853;28;20604;-78
2023/05/21 10:01:22;;;;;;;0.20;0.20;;;25.20;68.40;;;;;;5078878;28;20008;-77
2023/05/21 10:03:55;;;;;;;0.30;0.30;;;25.30;68.60;;;;;;5078764;28;20020;-77
2023/05/21 10:06:23;;;;;;;;;;;25.20;66.60;;;;;;5079044;28;20715;-80
2023/05/21 10:08:52;;;;;;;0.10;0.10;;;25.20;67.30;;;;;;5081556;28;19904;-81
2023/05/21 10:11:21;;;;;;;0.47;0.47;;;25.40;65.80;;;;;;5081015;28;20031;-78
2023/05/21 10:13:54;;;;;;;0.40;0.40;;;25.20;65.20;;;;;;5087130;28;20027;-87
2023/05/21 10:16:20;;;;;;;0.10;0.10;;;;;;;;;;5098966;28;20038;-81
2023/05/21 10:18:48;;;;;;;0.13;0.13;;;25.60;65.20;;;;;;5092004;28;20223;-78
2023/05/21 10:21:15;;;;;;;0.10;0.10;;;26.00;65.70;;;;;;5085193;28;20024;-79
2023/05/21 10:23:42;;;;;;;0.10;0.10;;;25.80;63.90;;;;;;5086021;28;20043;-89
2023/05/21 10:26:09;;;;;;;0.10;0.10;;;25.70;65.30;;;;;;5082492;28;20059;-77
2023/05/21 10:28:35;;;;;;;1.75;1.58;;;26.00;65.70;;;;;;5083550;28;20417;-78
2023/05/21 10:31:03;;;;;;;5.05;3.83;;;26.20;63.00;;;;;;5083322;28;20021;-83
2023/05/21 10:33:29;;;;;;;0.32;0.30;;;25.90;63.10;;;;;;5080653;28;20115;-80
2023/05/21 10:35:58;;;;;;;0.30;0.30;;;25.50;62.60;;;;;;5081639;28;20513;-87
2023/05/21 10:38:24;;;;;;;0.10;0.10;;;;;;;;;;5082117;28;20020;-76
2023/05/21 10:40:52;;;;;;;0.10;0.10;;;24.60;64.40;;;;;;5077116;28;20088;-75
2023/05/21 10:43:42;;;;;;;0.20;0.20;;;24.80;65.80;;;;;;5077469;28;20456;-76
2023/05/21 10:46:38;;;;;;;0.10;0.10;;;25.30;64.10;;;;;;5078359;28;20642;-75
2023/05/21 10:49:33;;;;;;;0.47;0.35;;;25.50;65.60;;;;;;5078877;28;20095;-86
2023/05/21 10:52:36;;;;;;;0.10;0.10;;;25.80;64.20;;;;;;5089763;28;20024;-81
2023/05/21 10:55:02;;;;;;;3.00;0.88;;;25.70;65.80;;;;;;5092630;28;20040;-83
2023/05/21 10:57:52;;;;;;;0.22;0.22;;;26.10;63.70;;;;;;5094666;28;20104;-79
2023/05/21 11:00:20;;;;;;;0.10;0.10;;;26.30;62.40;;;;;;5094451;28;20346;-80
2023/05/21 11:02:47;;;;;;;0.32;0.32;;;26.20;62.00;;;;;;5088232;28;20023;-89
2023/05/21 11:05:13;;;;;;;0.10;0.10;;;26.20;61.90;;;;;;5090796;28;20028;-80
2023/05/21 11:07:55;;;;;;;0.30;0.30;;;26.60;62.40;;;;;;5087190;28;20678;-88
2023/05/21 11:10:39;;;;;;;1.17;1.08;;;26.70;61.60;;;;;;5068489;28;20022;-77
2023/05/21 11:13:09;;;;;;;0.38;0.38;;;23.70;59.90;;;;;;5081325;28;20077;-77
2023/05/21 11:15:57;;;;;;;0.65;0.65;;;26.70;63.70;;;;;;5083788;28;20197;-89
2023/05/21 11:18:48;;;;;;;0.20;0.20;;;26.50;61.50;;;;;;5087841;28;20028;-94
2023/05/21 11:21:16;;;;;;;0.10;0.10;;;26.80;62.80;;;;;;5075349;28;20085;-78
2023/05/21 11:23:57;;;;;;;0.25;0.25;;;27.00;61.80;;;;;;5094130;28;20024;-78
2023/05/21 11:26:25;;;;;;;0.75;0.75;;;28.40;63.10;;;;;;5088301;28;20073;-81
2023/05/21 11:29:05;;;;;;;0.30;0.30;;;26.30;62.10;;;;;;5094021;28;20134;-83
2023/05/21 11:31:38;;;;;;;0.25;0.25;;;26.90;62.00;;;;;;5096238;28;20104;-77
2023/05/21 11:34:27;;;;;;;0.57;0.45;;;27.60;62.10;;;;;;5099853;28;20013;-77
2023/05/21 11:37:15;;;;;;;0.20;0.20;;;28.50;58.60;;;;;;5092228;28;20031;-78
2023/05/21 11:39:42;;;;;;;0.57;0.57;;;29.40;59.00;;;;;;5097829;28;20012;-75
2023/05/21 11:42:11;;;;;;;0.10;0.10;;;29.70;58.00;;;;;;5100338;28;20031;-89
2023/05/21 11:44:41;;;;;;;1.65;0.75;;;29.10;57.20;;;;;;5090374;28;20023;-77
2023/05/21 11:47:19;;;;;;;1.25;0.85;;;29.90;59.00;;;;;;5099997;28;20116;-78
2023/05/21 11:49:45;;;;;;;1.35;1.10;;;29.30;60.30;;;;;;5093637;28;20046;-78
2023/05/21 11:52:13;;;;;;;0.40;0.40;;;30.70;59.10;;;;;;5088357;28;20027;-83
2023/05/21 11:54:45;;;;;;;1.02;0.90;;;28.60;58.10;;;;;;5083939;28;20228;-86
2023/05/21 11:57:13;;;;;;;1.27;1.17;;;28.40;57.80;;;;;;5086353;28;20008;-78
2023/05/21 11:59:40;;;;;;;0.88;0.68;;;28.70;59.30;;;;;;5083311;28;20127;-85
2023/05/21 12:02:06;;;;;;;0.13;0.13;;;28.50;58.50;;;;;;5082185;28;20012;-74
2023/05/21 12:04:35;;;;;;;0.10;0.10;;;28.30;58.90;;;;;;5082224;28;20669;-78
2023/05/21 12:07:14;;;;;;;0.32;0.32;;;25.10;57.20;;;;;;5082015;28;20476;-78
2023/05/21 12:09:44;;;;;;;0.20;0.20;;;27.90;58.40;;;;;;5082181;28;20016;-77
2023/05/21 12:12:14;;;;;;;0.60;0.35;;;27.60;58.80;;;;;;5080050;28;20700;-78
2023/05/21 12:14:45;;;;;;;0.10;0.10;;;27.30;59.10;;;;;;5081730;28;20040;-77
2023/05/21 12:17:12;;;;;;;0.10;0.10;;;27.00;59.50;;;;;;5082395;28;20662;-76
2023/05/21 12:19:38;;;;;;;0.17;0.17;;;27.10;60.00;;;;;;5081719;28;20028;-75
2023/05/21 12:22:06;;;;;;;0.10;0.10;;;27.30;61.10;;;;;;5080439;28;20657;-75
2023/05/21 12:24:33;;;;;;;0.10;0.10;;;26.70;60.20;;;;;;5080066;28;20029;-75
2023/05/21 12:27:00;;;;;;;0.63;0.40;;;26.80;61.30;;;;;;5079564;28;20100;-75
2023/05/21 12:29:30;;;;;;;0.10;0.10;;;26.60;59.80;;;;;;5079837;28;20323;-76
2023/05/21 12:32:00;;;;;;;0.20;0.20;;;26.30;61.60;;;;;;5077895;28;20543;-76
2023/05/21 12:34:45;;;;;;;0.25;0.25;;;26.30;60.90;;;;;;5078236;28;20107;-76
2023/05/21 12:37:13;;;;;;;0.10;0.10;;;26.50;61.10;;;;;;5079643;28;20031;-76
2023/05/21 12:39:44;;;;;;;0.30;0.30;;;26.80;61.50;;;;;;5079787;28;20012;-75
2023/05/21 12:42:10;;;;;;;0.20;0.20;;;26.70;59.00;;;;;;5079306;28;20328;-75
2023/05/21 12:44:39;;;;;;;0.10;0.10;;;28.80;59.10;;;;;;5079223;28;20518;-82
2023/05/21 12:47:05;;;;;;;0.20;0.20;;;29.70;57.90;;;;;;5078132;28;20024;-76
2023/05/21 12:49:36;;;;;;;0.20;0.20;;;30.00;56.60;;;;;;5079156;28;20522;-76
2023/05/21 12:52:03;;;;;;;0.15;0.15;;;30.40;56.30;;;;;;5079256;28;20012;-75
2023/05/21 12:54:34;;;;;;;0.35;0.20;;;30.60;56.80;;;;;;5079096;28;20055;-80